Time;durP1;ratioP1;P1;durP2;ratioP2;P2;SDS_P1;SDS_P2;PMS_P1;PMS_P2;Temp;Humidity;BMP_temperature;BMP_pressure;BME280_temperature;BME280_humidity;BME280_pressure;Samples;Min_cycle;Max_cycle;Signal;HPM_P1;HPM_P2
2022/05/27 00:01:18;;;;;;;11.80;8.93;;;15.10;99.90;;;;;;5071489;28;20688;-77
2022/05/27 00:03:44;;;;;;;12.80;9.33;;;15.20;99.90;;;;;;5066756;28;20569;-77
2022/05/27 00:06:11;;;;;;;15.30;8.40;;;15.20;99.90;;;;;;5071624;28;20198;-77
2022/05/27 00:08:38;;;;;;;11.53;9.07;;;15.10;99.90;;;;;;5074317;28;20248;-76
2022/05/27 00:11:05;;;;;;;10.53;8.50;;;15.20;99.90;;;;;;5070550;28;20205;-76
2022/05/27 00:13:33;;;;;;;11.60;8.93;;;15.20;99.90;;;;;;5082253;28;20197;-77
2022/05/27 00:16:01;;;;;;;12.53;9.00;;;15.20;99.90;;;;;;5092563;28;20206;-76
2022/05/27 00:18:28;;;;;;;14.87;9.33;;;15.20;99.90;;;;;;5079817;28;20202;-76
2022/05/27 00:20:56;;;;;;;13.00;8.43;;;15.20;99.90;;;;;;5071853;28;20206;-76
2022/05/27 00:23:23;;;;;;;13.80;8.87;;;15.20;99.90;;;;;;5082639;28;20644;-76
2022/05/27 00:25:50;;;;;;;13.10;8.83;;;15.20;99.90;;;;;;5091674;28;20569;-76
2022/05/27 00:28:17;;;;;;;12.97;9.73;;;15.20;99.90;;;;;;5089410;28;20198;-76
2022/05/27 00:30:44;;;;;;;14.33;9.30;;;15.20;99.90;;;;;;5091512;28;20569;-76
2022/05/27 00:33:12;;;;;;;13.03;9.33;;;15.20;99.90;;;;;;5082504;28;20220;-76
2022/05/27 00:35:39;;;;;;;14.40;10.00;;;15.20;99.90;;;;;;5071465;28;20388;-76
2022/05/27 00:38:06;;;;;;;13.53;9.80;;;15.20;99.90;;;;;;5071809;28;20194;-76
2022/05/27 00:40:39;;;;;;;12.50;8.43;;;15.20;99.90;;;;;;5075820;28;20675;-77
2022/05/27 00:43:07;;;;;;;13.40;9.37;;;15.20;99.90;;;;;;5083262;28;20200;-76
2022/05/27 00:45:35;;;;;;;13.10;8.77;;;15.20;99.90;;;;;;5078274;28;20288;-76
2022/05/27 00:48:06;;;;;;;13.40;9.23;;;15.20;99.90;;;;;;5075675;28;20198;-76
2022/05/27 00:50:38;;;;;;;14.00;9.47;;;15.10;99.90;;;;;;5075758;28;20222;-76
2022/05/27 00:53:07;;;;;;;11.97;8.83;;;15.10;99.90;;;;;;5075828;28;20596;-76
2022/05/27 00:55:42;;;;;;;13.00;9.20;;;15.10;99.90;;;;;;5075666;28;20667;-76
2022/05/27 00:58:13;;;;;;;14.60;10.13;;;15.20;99.90;;;;;;5075979;28;20648;-76
2022/05/27 01:00:40;;;;;;;13.30;9.43;;;15.20;99.90;;;;;;5075227;28;20199;-76
2022/05/27 01:03:13;;;;;;;10.53;8.97;;;15.20;99.90;;;;;;5075902;28;20210;-75
2022/05/27 01:05:44;;;;;;;11.97;9.50;;;15.20;99.90;;;;;;5075438;28;20202;-76
2022/05/27 01:08:12;;;;;;;14.87;10.03;;;15.30;99.90;;;;;;5076707;28;20198;-76
2022/05/27 01:10:47;;;;;;;16.07;10.17;;;15.20;99.90;;;;;;5074853;28;20229;-76
2022/05/27 01:13:26;;;;;;;14.83;9.73;;;15.20;99.90;;;;;;5075659;28;20202;-76
2022/05/27 01:16:03;;;;;;;17.97;10.50;;;15.10;99.90;;;;;;5073947;28;20194;-76
2022/05/27 01:21:42;;;;;;;16.73;11.40;;;15.10;99.90;;;;;;5055349;28;20209;-74
2022/05/27 01:24:27;;;;;;;13.87;10.33;;;15.10;99.90;;;;;;5065494;28;20562;-74
2022/05/27 01:27:23;;;;;;;13.07;9.70;;;15.10;99.90;;;;;;5078562;28;20197;-73
2022/05/27 01:30:19;;;;;;;11.47;8.97;;;15.10;99.90;;;;;;5077596;28;20225;-74
2022/05/27 01:32:53;;;;;;;11.90;8.70;;;15.00;99.90;;;;;;5083046;28;20558;-73
2022/05/27 01:35:26;;;;;;;13.10;8.33;;;15.10;99.90;;;;;;5079781;28;20194;-73
2022/05/27 01:38:01;;;;;;;11.13;8.47;;;15.00;99.90;;;;;;5089097;28;20386;-73
2022/05/27 01:40:33;;;;;;;11.43;8.17;;;15.00;99.90;;;;;;5095337;28;20197;-73
2022/05/27 01:43:04;;;;;;;12.53;7.63;;;15.00;99.90;;;;;;5080344;28;20202;-74
2022/05/27 01:45:40;;;;;;;10.43;7.00;;;15.10;99.90;;;;;;5076092;28;20244;-74
2022/05/27 01:48:12;;;;;;;10.13;6.40;;;15.00;99.90;;;;;;5089762;28;20201;-74
2022/05/27 01:50:45;;;;;;;11.27;7.07;;;15.10;99.90;;;;;;5094714;28;20227;-75
2022/05/27 01:53:19;;;;;;;9.50;5.70;;;15.00;99.90;;;;;;5079583;28;20198;-75
2022/05/27 01:55:53;;;;;;;8.43;6.00;;;14.90;99.90;;;;;;5075740;28;20199;-74
2022/05/27 01:58:24;;;;;;;6.87;5.03;;;14.80;99.90;;;;;;5074768;28;20205;-74
2022/05/27 02:00:53;;;;;;;9.67;5.90;;;14.80;99.90;;;;;;5075461;28;20195;-74
2022/05/27 02:03:24;;;;;;;7.17;5.50;;;14.70;99.90;;;;;;5075792;28;20199;-75
2022/05/27 02:05:56;;;;;;;6.97;4.90;;;14.70;99.90;;;;;;5095222;28;20660;-74
2022/05/27 02:08:27;;;;;;;4.97;4.33;;;14.70;99.90;;;;;;5081333;28;20199;-74
2022/05/27 02:10:59;;;;;;;5.90;4.60;;;14.60;99.90;;;;;;5063679;28;20222;-74
2022/05/27 02:13:31;;;;;;;4.87;4.30;;;14.50;99.90;;;;;;5073444;28;20206;-74
2022/05/27 02:15:59;;;;;;;5.17;4.20;;;14.50;99.90;;;;;;5054787;28;20207;-75
2022/05/27 02:18:29;;;;;;;5.13;4.53;;;14.50;99.90;;;;;;5067704;28;20219;-75
2022/05/27 02:21:00;;;;;;;7.23;5.30;;;14.50;99.90;;;;;;5082198;28;20202;-74
2022/05/27 02:23:31;;;;;;;5.93;4.97;;;14.40;99.90;;;;;;5089693;28;20193;-74
2022/05/27 02:26:01;;;;;;;5.93;4.80;;;14.40;99.90;;;;;;5080813;28;20210;-74
2022/05/27 02:28:31;;;;;;;6.50;5.07;;;14.40;99.90;;;;;;5074401;28;20205;-74
2022/05/27 02:31:05;;;;;;;5.90;5.30;;;14.40;99.90;;;;;;5073040;28;20218;-74
2022/05/27 02:36:29;;;;;;;4.73;4.33;;;14.30;99.90;;;;;;5071909;28;20217;-74
2022/05/27 02:38:56;;;;;;;5.93;5.23;;;14.40;99.90;;;;;;5069510;28;20206;-74
2022/05/27 02:41:29;;;;;;;5.70;4.33;;;14.30;99.90;;;;;;5084560;28;20201;-74
2022/05/27 02:44:09;;;;;;;6.10;5.00;;;14.30;99.90;;;;;;5066170;28;20205;-74
2022/05/27 02:46:49;;;;;;;5.90;5.00;;;14.30;99.90;;;;;;5062017;28;20201;-74
2022/05/27 02:49:23;;;;;;;10.43;5.60;;;14.30;99.90;;;;;;5067942;28;20227;-75
2022/05/27 02:51:58;;;;;;;5.17;3.97;;;14.30;99.90;;;;;;5053730;28;20207;-75
2022/05/27 02:54:31;;;;;;;4.07;3.57;;;14.20;99.90;;;;;;5055096;28;20579;-74
2022/05/27 02:57:03;;;;;;;2.30;2.10;;;14.10;99.90;;;;;;5082409;28;20198;-74
2022/05/27 02:59:31;;;;;;;4.27;2.40;;;13.80;99.90;;;;;;5073854;28;20194;-74
2022/05/27 03:02:06;;;;;;;1.67;1.57;;;13.80;99.90;;;;;;5087050;28;20190;-74
2022/05/27 03:04:34;;;;;;;2.43;1.80;;;13.70;99.90;;;;;;5061265;28;20205;-74
2022/05/27 03:07:17;;;;;;;1.70;1.60;;;13.70;99.90;;;;;;5073373;28;20209;-74
2022/05/27 03:09:50;;;;;;;1.77;1.67;;;13.70;99.90;;;;;;5060084;28;20703;-74
2022/05/27 03:12:35;;;;;;;1.53;1.43;;;13.60;99.90;;;;;;5072190;28;20198;-74
2022/05/27 03:15:25;;;;;;;1.93;1.30;;;13.40;99.90;;;;;;5066050;28;20197;-74
2022/05/27 03:18:06;;;;;;;2.97;1.60;;;13.50;99.90;;;;;;5092579;28;20202;-74
2022/05/27 03:20:47;;;;;;;2.03;1.63;;;13.30;99.90;;;;;;5073424;28;20194;-74
2022/05/27 03:23:34;;;;;;;2.70;1.23;;;13.30;99.90;;;;;;5072705;28;20570;-74
2022/05/27 03:26:08;;;;;;;1.63;1.40;;;13.30;99.90;;;;;;5068978;28;20203;-74
2022/05/27 03:28:42;;;;;;;1.83;1.40;;;13.20;99.90;;;;;;5052907;28;20209;-73
2022/05/27 03:31:13;;;;;;;1.30;1.20;;;13.20;99.90;;;;;;5081948;28;20706;-73
2022/05/27 03:33:52;;;;;;;2.07;1.30;;;13.20;99.90;;;;;;5075691;28;20201;-74
2022/05/27 03:36:23;;;;;;;2.20;1.70;;;13.20;99.90;;;;;;5067323;28;20219;-73
2022/05/27 03:38:55;;;;;;;2.27;1.40;;;13.20;99.90;;;;;;5052516;28;20294;-73
2022/05/27 03:41:27;;;;;;;2.37;1.40;;;13.20;99.90;;;;;;5083235;28;20200;-73
2022/05/27 03:43:55;;;;;;;2.77;1.30;;;13.30;99.90;;;;;;5091862;28;20568;-73
2022/05/27 03:46:30;;;;;;;1.30;1.20;;;13.30;99.90;;;;;;5067569;28;20198;-73
2022/05/27 03:48:58;;;;;;;1.47;1.37;;;13.20;99.90;;;;;;5051658;28;20563;-73
2022/05/27 03:51:29;;;;;;;2.63;1.40;;;13.20;99.90;;;;;;5059312;28;20219;-74
2022/05/27 03:54:05;;;;;;;1.63;1.30;;;13.10;99.90;;;;;;5056126;28;20228;-74
2022/05/27 03:56:33;;;;;;;2.80;1.50;;;13.10;99.90;;;;;;5073695;28;20193;-74
2022/05/27 03:59:00;;;;;;;2.20;1.50;;;13.10;99.90;;;;;;5071893;28;20206;-72
2022/05/27 04:01:29;;;;;;;1.43;1.27;;;13.10;99.90;;;;;;5059579;28;20560;-73
2022/05/27 04:03:58;;;;;;;1.80;1.70;;;13.00;99.90;;;;;;5051479;28;20256;-73
2022/05/27 04:06:25;;;;;;;1.60;1.50;;;13.00;99.90;;;;;;5069198;28;20629;-73
2022/05/27 04:08:52;;;;;;;1.50;1.40;;;13.10;99.90;;;;;;5062592;28;20653;-73
2022/05/27 04:11:19;;;;;;;2.77;2.07;;;13.10;99.90;;;;;;5081737;28;20226;-73
2022/05/27 04:13:46;;;;;;;4.23;1.80;;;13.10;99.90;;;;;;5066926;28;20551;-74
2022/05/27 04:16:13;;;;;;;2.60;1.80;;;13.10;99.90;;;;;;5070217;28;20198;-74
2022/05/27 04:18:40;;;;;;;1.63;1.53;;;13.20;99.90;;;;;;5061142;28;20199;-74
2022/05/27 04:21:09;;;;;;;3.00;1.87;;;13.20;99.90;;;;;;5065378;28;20649;-73
2022/05/27 04:23:36;;;;;;;3.63;2.10;;;13.20;99.90;;;;;;5059504;28;20223;-73
2022/05/27 04:26:03;;;;;;;2.57;1.57;;;13.20;99.90;;;;;;5067477;28;20221;-73
2022/05/27 04:28:30;;;;;;;2.60;2.00;;;13.30;99.90;;;;;;5062779;28;20562;-73
2022/05/27 04:30:57;;;;;;;3.30;2.03;;;13.30;99.90;;;;;;5063490;28;20218;-73
2022/05/27 04:33:24;;;;;;;2.37;1.80;;;13.30;99.90;;;;;;5063406;28;20229;-74
2022/05/27 04:35:51;;;;;;;2.80;1.97;;;13.30;99.90;;;;;;5068365;28;20213;-76
2022/05/27 04:38:21;;;;;;;2.90;2.70;;;13.30;99.90;;;;;;5064357;28;20198;-70
2022/05/27 04:40:48;;;;;;;2.10;1.90;;;13.30;99.90;;;;;;5064019;28;20197;-76
2022/05/27 04:43:15;;;;;;;2.63;1.97;;;13.40;99.90;;;;;;5055173;28;20210;-76
2022/05/27 04:45:42;;;;;;;2.83;2.53;;;13.30;99.90;;;;;;5066773;28;20199;-76
2022/05/27 04:48:10;;;;;;;2.93;2.30;;;13.40;99.90;;;;;;5065683;28;20679;-76
2022/05/27 04:50:37;;;;;;;4.50;2.30;;;13.40;99.90;;;;;;5066493;28;20221;-75
2022/05/27 04:53:05;;;;;;;3.63;2.40;;;13.40;99.90;;;;;;5067603;28;20202;-76
2022/05/27 04:55:35;;;;;;;2.93;2.57;;;13.40;99.90;;;;;;5066744;28;20217;-76
2022/05/27 04:58:02;;;;;;;4.50;2.70;;;13.50;99.90;;;;;;5067311;28;20206;-76
2022/05/27 05:00:31;;;;;;;5.67;4.10;;;13.60;99.90;;;;;;5060611;28;20198;-76
2022/05/27 05:02:59;;;;;;;5.67;3.27;;;13.60;99.90;;;;;;5073137;28;20203;-75
2022/05/27 05:05:28;;;;;;;5.10;3.17;;;13.60;99.90;;;;;;5069272;28;20199;-76
2022/05/27 05:07:58;;;;;;;5.33;3.30;;;13.70;99.90;;;;;;5059391;28;20224;-76
2022/05/27 05:10:25;;;;;;;8.03;3.83;;;13.60;99.90;;;;;;5064457;28;20222;-76
2022/05/27 05:12:54;;;;;;;8.33;4.67;;;13.70;99.90;;;;;;5056593;28;20233;-76
2022/05/27 05:15:25;;;;;;;6.83;3.40;;;13.70;99.90;;;;;;5057923;28;20236;-75
2022/05/27 05:17:52;;;;;;;9.33;3.43;;;13.70;99.90;;;;;;5056503;28;20206;-76
2022/05/27 05:20:22;;;;;;;5.23;3.10;;;13.70;99.90;;;;;;5067018;28;20621;-76
2022/05/27 05:22:49;;;;;;;7.13;3.10;;;13.70;99.90;;;;;;5062921;28;20598;-76
2022/05/27 05:25:16;;;;;;;7.30;3.43;;;13.70;99.90;;;;;;5065194;28;20309;-76
2022/05/27 05:27:43;;;;;;;7.50;3.47;;;13.70;99.90;;;;;;5064237;28;20203;-75
2022/05/27 05:30:15;;;;;;;6.67;3.70;;;13.80;99.90;;;;;;5070396;28;20676;-76
2022/05/27 05:32:42;;;;;;;4.77;3.33;;;13.80;99.90;;;;;;5065789;28;20207;-76
2022/05/27 05:35:09;;;;;;;6.40;3.40;;;13.80;99.90;;;;;;5061726;28;20760;-76
2022/05/27 05:37:36;;;;;;;6.93;4.27;;;13.80;99.90;;;;;;5058897;28;20203;-76
2022/05/27 05:40:05;;;;;;;5.90;3.30;;;13.90;99.90;;;;;;5065159;28;20264;-75
2022/05/27 05:42:33;;;;;;;7.00;3.17;;;14.00;99.90;;;;;;5069649;28;20725;-76
2022/05/27 05:45:00;;;;;;;7.30;3.50;;;14.10;99.90;;;;;;5065744;28;20203;-76
2022/05/27 05:47:28;;;;;;;11.07;3.10;;;14.20;99.90;;;;;;5069260;28;20673;-76
2022/05/27 05:49:55;;;;;;;8.67;3.47;;;14.40;99.90;;;;;;5061053;28;20198;-76
2022/05/27 05:52:22;;;;;;;6.20;3.00;;;14.50;99.90;;;;;;5071930;28;20202;-76
2022/05/27 05:54:49;;;;;;;7.43;3.93;;;14.70;99.90;;;;;;5063609;28;20210;-76
2022/05/27 05:57:16;;;;;;;5.53;3.17;;;14.50;99.90;;;;;;5064701;28;20214;-76
2022/05/27 05:59:43;;;;;;;9.37;3.80;;;14.40;99.90;;;;;;5071970;28;20198;-76
2022/05/27 06:02:10;;;;;;;8.33;3.30;;;14.40;99.90;;;;;;5062068;28;20677;-75
2022/05/27 06:04:38;;;;;;;8.27;3.40;;;14.40;99.90;;;;;;5069447;28;20213;-75
2022/05/27 06:07:06;;;;;;;7.77;3.00;;;14.40;99.90;;;;;;5066683;28;20637;-75
2022/05/27 06:09:33;;;;;;;6.70;3.33;;;14.20;99.90;;;;;;5065608;28;20199;-75
2022/05/27 06:12:02;;;;;;;6.27;3.17;;;14.30;99.90;;;;;;5070309;28;20587;-75
2022/05/27 06:14:29;;;;;;;9.83;3.37;;;14.30;99.90;;;;;;5068517;28;20214;-75
2022/05/27 06:16:56;;;;;;;6.80;3.10;;;14.40;99.90;;;;;;5060408;28;20203;-75
2022/05/27 06:19:23;;;;;;;8.73;3.23;;;14.50;99.90;;;;;;5069082;28;20203;-75
2022/05/27 06:21:51;;;;;;;8.97;3.10;;;14.70;99.90;;;;;;5069435;28;20198;-75
2022/05/27 06:24:18;;;;;;;7.17;3.10;;;14.80;99.90;;;;;;5071699;28;20202;-76
2022/05/27 06:26:45;;;;;;;5.57;3.23;;;14.70;99.90;;;;;;5064392;28;20657;-74
2022/05/27 06:34:41;;;;;;;6.20;3.30;;;14.90;99.90;;;;;;5061676;28;20210;-75
2022/05/27 06:37:12;;;;;;;5.63;3.20;;;14.90;99.90;;;;;;5062478;28;20206;-75
2022/05/27 06:39:40;;;;;;;5.60;3.10;;;14.80;99.90;;;;;;5061578;28;20214;-75
2022/05/27 06:42:09;;;;;;;3.53;3.00;;;14.70;99.90;;;;;;5056917;28;20559;-75
2022/05/27 06:44:37;;;;;;;6.13;3.60;;;14.70;99.90;;;;;;5066371;28;20214;-75
2022/05/27 06:47:04;;;;;;;6.30;3.60;;;14.80;99.90;;;;;;5068459;28;20671;-76
2022/05/27 06:49:31;;;;;;;5.73;3.03;;;14.90;99.90;;;;;;5070237;28;20246;-75
2022/05/27 06:51:58;;;;;;;6.67;3.20;;;15.00;99.90;;;;;;5066941;28;20589;-75
2022/05/27 06:54:27;;;;;;;6.70;3.23;;;15.10;99.90;;;;;;5066567;28;20673;-75
2022/05/27 06:56:53;;;;;;;6.17;2.80;;;15.00;99.90;;;;;;5070200;28;20206;-75
2022/05/27 06:59:23;;;;;;;4.43;2.93;;;15.10;99.90;;;;;;5068736;28;20199;-75
2022/05/27 07:01:50;;;;;;;7.77;2.97;;;15.20;99.90;;;;;;5072899;28;20208;-75
2022/05/27 07:04:18;;;;;;;6.87;3.27;;;15.10;99.90;;;;;;5062807;28;20219;-75
2022/05/27 07:06:47;;;;;;;3.77;2.97;;;15.00;99.90;;;;;;5062257;28;20198;-74
2022/05/27 07:09:15;;;;;;;5.37;2.90;;;14.90;99.90;;;;;;5067653;28;20206;-74
2022/05/27 07:11:45;;;;;;;6.47;3.10;;;14.90;99.90;;;;;;5068615;28;20218;-75
2022/05/27 07:14:13;;;;;;;12.47;3.10;;;14.90;99.90;;;;;;5060870;28;20213;-74
2022/05/27 07:16:41;;;;;;;4.87;2.63;;;14.80;99.90;;;;;;5068091;28;20252;-74
2022/05/27 07:19:08;;;;;;;5.33;2.57;;;15.00;99.90;;;;;;5061622;28;20202;-74
2022/05/27 07:21:37;;;;;;;6.13;2.83;;;15.10;99.90;;;;;;5065775;28;20203;-74
2022/05/27 07:24:04;;;;;;;5.70;2.70;;;15.20;99.90;;;;;;5065892;28;20205;-74
2022/05/27 07:26:31;;;;;;;5.47;2.87;;;15.20;99.90;;;;;;5063388;28;20207;-74
2022/05/27 07:28:59;;;;;;;8.10;2.80;;;15.30;99.90;;;;;;5067141;28;20206;-74
2022/05/27 07:31:27;;;;;;;9.57;2.93;;;15.50;99.90;;;;;;5064814;28;20584;-74
2022/05/27 07:33:53;;;;;;;6.50;2.70;;;15.50;99.90;;;;;;5061924;28;20247;-72
2022/05/27 07:36:20;;;;;;;8.33;3.10;;;15.60;99.90;;;;;;5064857;28;20218;-74
2022/05/27 07:38:51;;;;;;;6.17;2.43;;;15.60;54.50;;;;;;5059935;28;20209;-74
2022/05/27 07:41:18;;;;;;;7.17;2.80;;;15.60;30.40;;;;;;5067431;28;20267;-74
2022/05/27 07:43:45;;;;;;;8.90;2.90;;;15.60;1.00;;;;;;5065745;28;20198;-75
2022/05/27 07:46:15;;;;;;;8.23;2.60;;;15.70;1.00;;;;;;5062929;28;20202;-74
2022/05/27 07:48:42;;;;;;;7.90;3.37;;;15.80;1.00;;;;;;5065938;28;20202;-74
2022/05/27 07:51:09;;;;;;;4.00;2.40;;;15.80;1.00;;;;;;5061880;28;20230;-73
2022/05/27 07:53:38;;;;;;;8.03;2.87;;;15.80;1.00;;;;;;5066682;28;20229;-74
2022/05/27 07:56:05;;;;;;;5.53;2.17;;;15.70;1.00;;;;;;5073535;28;20289;-73
2022/05/27 07:58:33;;;;;;;7.00;2.30;;;15.50;1.00;;;;;;5055159;28;20254;-74
2022/05/27 08:01:00;;;;;;;6.17;2.63;;;15.50;1.00;;;;;;5058182;28;20645;-74
2022/05/27 08:03:29;;;;;;;4.10;2.17;;;15.50;99.90;;;;;;5058487;28;20620;-74
2022/05/27 08:05:56;;;;;;;6.70;2.60;;;15.50;99.90;;;;;;5057858;28;20198;-73
2022/05/27 08:08:24;;;;;;;4.87;2.33;;;15.50;99.90;;;;;;5061750;28;20293;-74
2022/05/27 08:10:51;;;;;;;6.43;2.20;;;15.60;1.00;;;;;;5055444;28;20238;-74
2022/05/27 08:13:18;;;;;;;5.47;2.90;;;15.90;1.00;;;;;;5059979;28;20637;-74
2022/05/27 08:15:45;;;;;;;5.93;2.27;;;16.00;99.90;;;;;;5043875;28;20331;-73
2022/05/27 08:18:12;;;;;;;5.70;2.27;;;16.00;99.90;;;;;;5060505;28;20311;-74
2022/05/27 08:20:44;;;;;;;5.40;1.90;;;16.00;1.00;;;;;;5057045;28;20683;-73
2022/05/27 08:23:11;;;;;;;5.20;2.40;;;16.00;99.90;;;;;;5064225;28;20294;-74
2022/05/27 08:25:38;;;;;;;6.23;2.27;;;16.10;99.90;;;;;;5043156;28;20513;-74
2022/05/27 08:28:06;;;;;;;8.88;2.47;;;16.10;99.90;;;;;;5051514;28;20256;-74
2022/05/27 08:30:37;;;;;;;4.30;2.17;;;16.10;99.90;;;;;;5059486;28;20203;-73
2022/05/27 08:33:04;;;;;;;5.80;2.50;;;16.50;99.90;;;;;;5056335;28;20687;-73
2022/05/27 08:38:21;;;;;;;5.00;2.22;;;16.50;99.10;;;;;;5056205;28;20664;-74
2022/05/27 08:41:18;;;;;;;5.23;2.23;;;16.40;96.00;;;;;;5057096;28;20202;-74
2022/05/27 08:43:58;;;;;;;5.20;2.40;;;16.30;90.40;;;;;;5061775;28;20253;-73
2022/05/27 08:46:30;;;;;;;5.32;2.47;;;16.40;90.70;;;;;;5060378;28;20256;-74
2022/05/27 08:49:01;;;;;;;5.53;2.08;;;16.40;92.60;;;;;;5055276;28;20199;-73
2022/05/27 08:51:33;;;;;;;6.40;2.40;;;16.20;92.40;;;;;;5064166;28;20285;-74
2022/05/27 08:54:06;;;;;;;6.95;2.70;;;16.90;95.80;;;;;;5056955;28;20245;-74
2022/05/27 08:59:28;;;;;;;7.30;2.85;;;17.60;92.80;;;;;;5057747;28;20298;-74
2022/05/27 09:01:58;;;;;;;3.78;2.28;;;17.50;90.90;;;;;;5064514;28;20256;-74
2022/05/27 09:04:32;;;;;;;7.28;2.40;;;17.90;91.70;;;;;;5066180;28;20241;-74
2022/05/27 09:07:07;;;;;;;6.07;2.50;;;18.30;84.40;;;;;;5069631;28;20207;-74
2022/05/27 09:09:38;;;;;;;7.18;3.00;;;18.30;80.50;;;;;;5067235;28;20701;-74
2022/05/27 09:12:38;;;;;;;6.90;2.63;;;18.20;83.90;;;;;;5063035;28;20222;-74
2022/05/27 09:15:18;;;;;;;10.52;2.95;;;17.80;75.00;;;;;;5059549;28;20249;-74
2022/05/27 09:17:54;;;;;;;5.47;2.30;;;17.50;83.50;;;;;;5076971;28;20194;-73
2022/05/27 09:20:31;;;;;;;5.03;2.30;;;17.10;89.50;;;;;;5073641;28;20234;-74
2022/05/27 09:23:13;;;;;;;6.22;2.53;;;17.40;87.50;;;;;;5079833;28;20229;-73
2022/05/27 09:25:51;;;;;;;10.77;2.47;;;17.70;80.30;;;;;;5072626;28;20559;-73
2022/05/27 09:28:27;;;;;;;8.88;2.40;;;18.20;81.70;;;;;;5073687;28;20279;-74
2022/05/27 09:30:57;;;;;;;8.20;2.85;;;18.50;74.60;;;;;;5070349;28;20586;-74
2022/05/27 09:33:26;;;;;;;7.18;2.60;;;18.50;73.90;;;;;;5073395;28;20226;-74
2022/05/27 09:36:00;;;;;;;7.45;2.88;;;18.20;76.20;;;;;;5071386;28;20218;-74
2022/05/27 09:38:30;;;;;;;3.97;2.50;;;17.90;71.10;;;;;;5054597;28;20206;-74
2022/05/27 09:41:01;;;;;;;9.27;3.13;;;18.50;70.00;;;;;;5053789;28;20634;-73
2022/05/27 09:43:34;;;;;;;7.28;2.85;;;18.60;68.40;;;;;;5065164;28;20255;-74
2022/05/27 09:46:04;;;;;;;9.27;3.03;;;18.30;68.10;;;;;;5065898;28;20206;-74
2022/05/27 09:48:31;;;;;;;5.47;2.40;;;18.10;71.30;;;;;;5064395;28;20253;-75
2022/05/27 09:51:00;;;;;;;12.07;3.13;;;17.90;76.10;;;;;;5068881;28;20658;-74
2022/05/27 09:53:31;;;;;;;11.23;3.08;;;17.10;1.00;;;;;;5067618;28;20207;-74
2022/05/27 09:56:04;;;;;;;9.82;3.20;;;16.20;1.00;;;;;;5062714;28;20257;-74
2022/05/27 09:58:33;;;;;;;8.77;3.30;;;15.40;10.60;;;;;;5065347;28;20244;-75
2022/05/27 10:01:03;;;;;;;12.32;3.47;;;14.80;99.90;;;;;;5066377;28;20230;-77
2022/05/27 10:03:36;;;;;;;5.50;3.33;;;14.70;99.90;;;;;;5064391;28;20198;-73
2022/05/27 10:06:06;;;;;;;6.63;3.03;;;14.50;99.90;;;;;;5065188;28;20198;-77
2022/05/27 10:08:40;;;;;;;7.40;3.50;;;14.40;99.90;;;;;;5061977;28;20199;-77
2022/05/27 10:11:21;;;;;;;6.70;3.20;;;15.00;99.90;;;;;;5064818;28;20245;-76
2022/05/27 10:13:49;;;;;;;8.23;3.30;;;15.10;99.90;;;;;;5068294;28;20741;-77
2022/05/27 10:16:24;;;;;;;12.20;4.73;;;15.70;99.90;;;;;;5065126;28;20280;-77
2022/05/27 10:19:07;;;;;;;10.90;3.67;;;16.40;99.90;;;;;;5064191;28;20216;-77
2022/05/27 10:21:49;;;;;;;8.57;3.35;;;16.50;99.90;;;;;;5065520;28;20658;-76
2022/05/27 10:24:19;;;;;;;6.47;3.20;;;16.50;99.90;;;;;;5053981;28;20206;-76
2022/05/27 10:27:01;;;;;;;10.00;2.90;;;17.20;99.90;;;;;;5064721;28;20199;-76
2022/05/27 10:29:28;;;;;;;6.75;2.50;;;17.40;99.90;;;;;;5061481;28;20214;-77
2022/05/27 10:31:58;;;;;;;6.38;2.95;;;18.00;99.90;;;;;;5066799;28;20684;-76
2022/05/27 10:34:43;;;;;;;5.90;2.50;;;18.10;99.90;;;;;;5064928;28;20199;-76
2022/05/27 10:37:22;;;;;;;6.35;2.90;;;18.40;99.90;;;;;;5065063;28;20556;-76
2022/05/27 10:40:03;;;;;;;6.85;2.65;;;18.30;99.90;;;;;;5069082;28;20214;-76
2022/05/27 10:42:44;;;;;;;8.65;3.00;;;18.40;99.90;;;;;;5058105;28;20257;-76
2022/05/27 10:45:19;;;;;;;8.23;2.92;;;18.60;99.90;;;;;;5070452;28;20271;-76
2022/05/27 10:48:13;;;;;;;7.70;2.80;;;19.00;99.90;;;;;;5051466;28;20211;-76
2022/05/27 10:50:47;;;;;;;7.80;2.95;;;19.20;95.80;;;;;;5074548;28;20203;-76
2022/05/27 10:53:38;;;;;;;8.85;2.53;;;19.40;89.10;;;;;;5054411;28;20378;-76
2022/05/27 10:56:18;;;;;;;7.32;2.78;;;18.80;89.90;;;;;;5048267;28;20668;-75
2022/05/27 11:02:07;;;;;;;7.68;2.58;;;19.70;87.00;;;;;;5071688;28;20326;-76
2022/05/27 11:05:07;;;;;;;6.10;2.53;;;19.90;70.80;;;;;;5072836;28;20603;-76
2022/05/27 11:07:42;;;;;;;5.68;2.42;;;20.20;64.20;;;;;;5068514;28;20596;-76
2022/05/27 11:10:31;;;;;;;7.60;2.90;;;19.70;65.40;;;;;;5076091;28;20198;-75
2022/05/27 11:16:06;;;;;;;8.18;2.40;;;19.80;62.40;;;;;;5071328;28;20667;-75
2022/05/27 11:18:45;;;;;;;9.57;2.60;;;20.00;60.00;;;;;;5065455;28;20268;-75
2022/05/27 11:21:24;;;;;;;7.00;2.65;;;19.90;63.10;;;;;;5061183;28;20704;-75
2022/05/27 11:24:14;;;;;;;8.90;2.63;;;19.80;61.30;;;;;;5067156;28;20194;-75
2022/05/27 11:26:49;;;;;;;7.50;2.55;;;19.80;58.50;;;;;;5058896;28;20604;-75
2022/05/27 11:29:40;;;;;;;7.32;2.47;;;20.10;56.40;;;;;;5050170;28;20198;-75
2022/05/27 11:32:20;;;;;;;6.90;2.55;;;19.90;56.50;;;;;;5065952;28;20222;-75
2022/05/27 11:35:01;;;;;;;9.23;3.20;;;20.00;54.90;;;;;;5066401;28;20245;-73
2022/05/27 11:37:41;;;;;;;7.32;2.38;;;20.00;55.80;;;;;;5067232;28;20605;-75
2022/05/27 11:40:29;;;;;;;9.07;2.83;;;20.40;47.70;;;;;;5069350;28;20205;-75
2022/05/27 11:43:37;;;;;;;6.82;2.00;;;20.50;48.60;;;;;;5071806;28;20323;-74
2022/05/27 11:46:22;;;;;;;7.10;2.10;;;19.70;44.80;;;;;;5068620;28;20260;-75
2022/05/27 11:48:58;;;;;;;8.23;2.08;;;19.70;46.00;;;;;;5069265;28;20564;-75
2022/05/27 11:51:39;;;;;;;5.53;2.20;;;19.70;43.20;;;;;;5066888;28;20207;-74
2022/05/27 11:54:30;;;;;;;5.43;2.03;;;19.30;46.50;;;;;;5068420;28;20198;-75
2022/05/27 11:57:11;;;;;;;5.90;2.30;;;19.60;47.20;;;;;;5059714;28;20210;-74
2022/05/27 11:59:41;;;;;;;4.85;1.60;;;19.20;46.30;;;;;;5060162;28;20229;-74
2022/05/27 12:02:16;;;;;;;7.00;2.58;;;18.70;39.90;;;;;;5065045;28;20203;-74
2022/05/27 12:04:49;;;;;;;7.40;2.85;;;19.50;40.70;;;;;;5064798;28;20259;-74
2022/05/27 12:07:22;;;;;;;6.68;1.95;;;19.30;36.00;;;;;;5054090;28;20202;-75
2022/05/27 12:09:55;;;;;;;5.78;2.15;;;19.70;36.50;;;;;;5060314;28;20767;-74
2022/05/27 12:12:26;;;;;;;6.00;2.40;;;19.90;33.90;;;;;;5059056;28;20229;-74
2022/05/27 12:14:56;;;;;;;3.80;2.00;;;19.40;36.60;;;;;;5056834;28;20241;-74
2022/05/27 12:17:31;;;;;;;8.30;2.22;;;20.00;34.70;;;;;;5059544;28;20199;-75
2022/05/27 12:20:02;;;;;;;5.65;1.55;;;19.90;29.80;;;;;;5063041;28;20244;-74
2022/05/27 12:22:32;;;;;;;6.68;2.08;;;19.50;33.30;;;;;;5055190;28;20560;-74
2022/05/27 12:25:04;;;;;;;7.30;2.08;;;18.90;34.80;;;;;;5060230;28;20717;-74
2022/05/27 12:27:33;;;;;;;9.23;2.15;;;19.20;35.60;;;;;;5058485;28;20584;-74
2022/05/27 12:30:00;;;;;;;8.00;2.25;;;18.60;33.30;;;;;;5062010;28;20294;-75
2022/05/27 12:32:29;;;;;;;6.53;2.60;;;18.50;38.10;;;;;;5059038;28;20222;-74
2022/05/27 12:35:21;;;;;;;6.95;2.00;;;18.40;44.50;;;;;;5066024;28;20225;-75
2022/05/27 12:37:51;;;;;;;7.53;2.40;;;17.80;53.10;;;;;;5064385;28;20241;-75
2022/05/27 12:40:26;;;;;;;8.65;2.47;;;16.50;94.90;;;;;;5059040;28;20649;-77
2022/05/27 12:42:55;;;;;;;5.93;2.35;;;15.40;1.00;;;;;;5062456;28;20212;-76
2022/05/27 12:45:39;;;;;;;11.88;3.47;;;16.00;99.90;;;;;;5063957;28;20290;-76
2022/05/27 12:48:08;;;;;;;5.75;2.58;;;16.60;1.00;;;;;;5064633;28;20199;-76
2022/05/27 12:50:40;;;;;;;11.02;2.35;;;17.10;1.00;;;;;;5060716;28;20199;-76
2022/05/27 12:53:20;;;;;;;7.38;2.22;;;17.40;1.00;;;;;;5059358;28;20749;-76
2022/05/27 13:02:46;;;;;;;7.50;2.13;;;17.60;1.00;;;;;;5067014;28;20236;-76
2022/05/27 13:05:17;;;;;;;12.18;2.10;;;17.10;1.00;;;;;;5062110;28;20245;-75
2022/05/27 13:07:49;;;;;;;7.40;2.30;;;16.90;1.00;;;;;;5062422;28;20205;-76
2022/05/27 13:10:49;;;;;;;7.50;2.30;;;17.70;1.00;;;;;;5060994;28;20362;-76
2022/05/27 13:13:22;;;;;;;8.23;2.00;;;18.10;1.00;;;;;;5064167;28;20223;-76
2022/05/27 13:15:55;;;;;;;8.32;2.00;;;18.00;99.90;;;;;;5063144;28;20214;-76
2022/05/27 13:18:43;;;;;;;13.05;2.30;;;18.10;98.10;;;;;;5060336;28;20199;-76
2022/05/27 13:21:13;;;;;;;6.68;2.28;;;18.10;1.00;;;;;;5062475;28;20609;-75
2022/05/27 13:23:59;;;;;;;9.70;1.70;;;18.00;1.00;;;;;;5066714;28;20260;-76
2022/05/27 13:26:40;;;;;;;8.48;1.77;;;17.90;1.00;;;;;;5059771;28;20234;-75
2022/05/27 13:29:23;;;;;;;8.75;2.60;;;18.30;1.00;;;;;;5069533;28;20199;-75
2022/05/27 13:31:52;;;;;;;4.43;1.33;;;18.60;1.00;;;;;;5068710;28;20205;-76
2022/05/27 13:34:24;;;;;;;8.02;1.83;;;18.80;1.00;;;;;;5062646;28;20222;-75
2022/05/27 13:36:55;;;;;;;3.95;1.48;;;19.10;1.00;;;;;;5059563;28;20334;-75
2022/05/27 13:39:27;;;;;;;4.13;1.30;;;19.20;1.00;;;;;;5062354;28;20206;-76
2022/05/27 13:41:54;;;;;;;3.15;1.50;;;19.00;1.00;;;;;;5060946;28;20202;-75